createdAt,value
2019-05-05T03:03:16.240Z,90.70
2019-05-05T03:05:45.670Z,90.50
2019-05-05T03:08:15.104Z,90.60
2019-05-05T03:10:45.302Z,90.40
2019-05-05T03:13:15.806Z,90.30
2019-05-05T03:15:54.972Z,90.30
2019-05-05T03:18:24.787Z,90.30
2019-05-05T03:21:02.358Z,90.50
2019-05-05T03:23:25.314Z,90.90
2019-05-05T03:25:54.914Z,91.10
2019-05-05T03:28:25.890Z,91.10
2019-05-05T03:30:55.927Z,90.90
2019-05-05T03:33:25.704Z,90.90
2019-05-05T03:35:55.488Z,90.90
2019-05-05T03:38:24.906Z,91.10
2019-05-05T03:40:56.040Z,91.10
2019-05-05T03:43:29.422Z,91.10
2019-05-05T03:46:00.851Z,91.00
2019-05-05T03:48:30.305Z,90.90
2019-05-05T03:50:59.798Z,90.90
2019-05-05T03:53:29.811Z,91.00
2019-05-05T03:55:59.542Z,91.10
2019-05-05T03:58:29.087Z,91.20
2019-05-05T04:01:19.411Z,91.10
2019-05-05T04:03:48.670Z,91.00
2019-05-05T04:06:20.335Z,90.60
2019-05-05T04:08:49.595Z,90.30
2019-05-05T04:11:18.858Z,90.30
2019-05-05T04:13:49.250Z,90.10
2019-05-05T04:16:23.726Z,90.10
2019-05-05T04:18:54.771Z,90.10
2019-05-05T04:21:31.344Z,90.10
2019-05-05T04:23:54.987Z,90.10
2019-05-05T04:26:24.254Z,89.90
2019-05-05T04:28:54.175Z,89.90
2019-05-05T04:31:24.143Z,90.20
2019-05-05T04:33:53.957Z,90.40
2019-05-05T04:36:23.619Z,90.60
2019-05-05T04:38:54.574Z,90.80
2019-05-05T04:41:24.594Z,90.80
2019-05-05T04:43:54.940Z,90.80
2019-05-05T04:46:24.624Z,90.70
2019-05-05T04:49:04.556Z,90.60
2019-05-05T04:51:47.014Z,90.50
2019-05-05T04:54:08.379Z,90.50
2019-05-05T04:56:38.620Z,90.50
2019-05-05T04:59:07.870Z,90.50
2019-05-05T05:01:37.132Z,90.40
2019-05-05T05:04:24.325Z,90.60
2019-05-05T05:06:55.547Z,90.60
2019-05-05T05:09:24.959Z,90.50
2019-05-05T05:11:54.789Z,90.40
2019-05-05T05:14:24.754Z,90.60
2019-05-05T05:16:55.378Z,90.50
2019-05-05T05:19:24.921Z,90.50
2019-05-05T05:22:01.169Z,90.40
2019-05-05T05:24:25.218Z,90.10
2019-05-05T05:26:55.534Z,90.00
2019-05-05T05:29:24.925Z,90.00
2019-05-05T05:31:54.188Z,89.60
2019-05-05T05:34:23.927Z,89.60
2019-05-05T05:36:53.703Z,89.80
2019-05-05T05:39:30.391Z,89.80
2019-05-05T05:41:59.659Z,89.70
2019-05-05T05:44:33.822Z,89.40
2019-05-05T05:47:16.735Z,88.20
2019-05-05T05:49:47.665Z,87.60
2019-05-05T05:52:19.233Z,86.90
2019-05-05T05:54:48.129Z,85.00
2019-05-05T05:57:17.382Z,84.80
2019-05-05T05:59:46.650Z,84.20
2019-05-05T06:02:15.915Z,84.70
2019-05-05T06:04:45.255Z,84.10
2019-05-05T06:07:14.843Z,83.80
2019-05-05T06:09:44.439Z,83.00
2019-05-05T06:12:14.332Z,82.80
2019-05-05T06:14:44.669Z,82.50
2019-05-05T06:17:15.089Z,82.20
2019-05-05T06:19:44.753Z,81.60
2019-05-05T06:22:27.884Z,82.00
2019-05-05T06:24:46.291Z,81.00
2019-05-05T06:27:15.561Z,81.10
2019-05-05T06:29:45.046Z,81.30
2019-05-05T06:32:14.709Z,81.10
2019-05-05T06:34:44.399Z,80.60
2019-05-05T06:37:14.556Z,80.00
2019-05-05T06:39:44.801Z,79.50
2019-05-05T06:42:18.711Z,79.60
2019-05-05T06:44:49.610Z,79.70
2019-05-05T06:47:20.547Z,78.10
2019-05-05T06:49:50.058Z,77.70
2019-05-05T06:52:19.319Z,77.70
2019-05-05T06:54:48.579Z,76.00
2019-05-05T06:57:18.178Z,74.60
2019-05-05T06:59:47.679Z,74.80
2019-05-05T07:02:17.102Z,74.70
2019-05-05T07:04:46.694Z,74.20
2019-05-05T07:07:16.011Z,73.10
2019-05-05T07:09:45.270Z,72.60
2019-05-05T07:12:14.528Z,73.40
2019-05-05T07:14:44.593Z,74.10
2019-05-05T07:17:14.228Z,72.80
2019-05-05T07:19:44.972Z,72.60
2019-05-05T07:22:17.574Z,72.80
2019-05-05T07:24:45.484Z,69.70
2019-05-05T07:27:14.735Z,69.80
2019-05-05T07:29:43.994Z,68.70
2019-05-05T07:32:14.213Z,69.40
2019-05-05T07:35:03.949Z,68.30
2019-05-05T07:37:34.420Z,67.20
2019-05-05T07:40:06.407Z,67.90
2019-05-05T07:42:35.672Z,67.90
2019-05-05T07:45:19.440Z,68.20
2019-05-05T07:47:38.407Z,68.70
2019-05-05T07:50:14.499Z,67.70
2019-05-05T07:52:39.770Z,65.90
2019-05-05T07:55:09.275Z,62.70
2019-05-05T07:57:38.546Z,62.30
2019-05-05T08:00:08.242Z,62.60
2019-05-05T08:02:37.575Z,62.30
2019-05-05T08:05:07.267Z,63.30
2019-05-05T08:07:36.543Z,62.00
2019-05-05T08:10:06.437Z,59.20
2019-05-05T08:12:35.770Z,56.60
2019-05-05T08:15:09.575Z,58.40
2019-05-05T08:17:40.482Z,59.00
2019-05-05T08:20:15.143Z,57.60
2019-05-05T08:22:44.481Z,56.60
2019-05-05T08:25:15.956Z,57.60
2019-05-05T08:27:49.415Z,56.50
2019-05-05T08:30:36.085Z,56.40
2019-05-05T08:33:05.382Z,57.10
2019-05-05T08:35:34.648Z,57.20
2019-05-05T08:38:04.770Z,56.90
2019-05-05T08:40:34.700Z,54.90
2019-05-05T08:43:04.838Z,53.20
2019-05-05T08:45:35.026Z,52.70
2019-05-05T08:48:05.121Z,54.10
2019-05-05T08:50:35.023Z,54.40
2019-05-05T08:53:08.287Z,53.60
2019-05-05T08:55:35.834Z,51.80
2019-05-05T08:58:05.095Z,52.20
2019-05-05T09:00:34.359Z,49.90
2019-05-05T09:03:03.986Z,49.90
2019-05-05T09:05:34.445Z,50.10
2019-05-05T09:08:04.630Z,48.80
2019-05-05T09:10:34.391Z,49.80
2019-05-05T09:13:05.162Z,50.00
2019-05-05T09:15:37.520Z,49.60
2019-05-05T09:18:05.654Z,51.30
2019-05-05T09:20:35.203Z,51.20
2019-05-05T09:23:04.739Z,51.50
2019-05-05T09:25:41.702Z,50.40
2019-05-05T09:28:19.419Z,49.70
2019-05-05T09:30:53.553Z,50.90
2019-05-05T09:33:24.745Z,51.70
2019-05-05T09:35:54.280Z,50.60
2019-05-05T09:38:23.930Z,51.40
2019-05-05T09:40:54.434Z,51.70
2019-05-05T09:43:24.160Z,51.20
2019-05-05T09:45:54.739Z,52.00
2019-05-05T09:48:24.409Z,52.00
2019-05-05T09:50:54.169Z,52.60
2019-05-05T09:53:24.065Z,52.60
2019-05-05T09:55:54.846Z,53.50
2019-05-05T09:58:24.294Z,53.70
2019-05-05T10:00:55.199Z,53.30
2019-05-05T10:03:24.467Z,53.30
2019-05-05T10:05:55.100Z,51.40
2019-05-05T10:08:24.375Z,49.70
2019-05-05T10:10:54.710Z,49.30
2019-05-05T10:13:24.199Z,50.00
2019-05-05T10:15:54.923Z,49.90
2019-05-05T10:18:25.498Z,51.00
2019-05-05T10:20:54.927Z,50.70
2019-05-05T10:23:25.844Z,50.40
2019-05-05T10:25:56.782Z,50.90
2019-05-05T10:28:26.220Z,49.80
2019-05-05T10:30:55.485Z,49.60
2019-05-05T10:33:24.798Z,49.60
2019-05-05T10:35:54.256Z,49.40
2019-05-05T10:38:23.649Z,50.60
2019-05-05T10:40:53.740Z,49.90
2019-05-05T10:43:23.869Z,49.70
2019-05-05T10:45:54.681Z,48.60
2019-05-05T10:48:24.283Z,48.60
2019-05-05T10:50:53.778Z,48.10
2019-05-05T10:53:23.102Z,47.90
2019-05-05T10:55:53.942Z,48.40
2019-05-05T10:58:24.882Z,48.40
2019-05-05T11:00:56.224Z,48.20
2019-05-05T11:03:25.490Z,49.30
2019-05-05T11:05:55.344Z,50.70
2019-05-05T11:08:25.142Z,50.60
2019-05-05T11:10:54.420Z,51.20
2019-05-05T11:13:24.127Z,51.20
2019-05-05T11:15:54.671Z,51.40
2019-05-05T11:18:25.184Z,51.40
2019-05-05T11:20:54.952Z,49.70
2019-05-05T11:23:24.958Z,50.30
2019-05-05T11:25:54.610Z,51.00
2019-05-05T11:28:23.966Z,49.70
2019-05-05T11:30:54.073Z,47.50
2019-05-05T11:33:31.219Z,45.30
2019-05-05T11:36:05.351Z,45.00
2019-05-05T11:38:34.896Z,44.00
2019-05-05T11:41:04.960Z,41.90
2019-05-05T11:43:34.416Z,43.00
2019-05-05T11:46:04.000Z,42.60
2019-05-05T11:48:34.450Z,43.70
2019-05-05T11:51:04.610Z,43.10
2019-05-05T11:53:34.133Z,42.90
2019-05-05T11:56:04.278Z,45.00
2019-05-05T11:58:34.666Z,45.20
2019-05-05T12:01:04.110Z,44.50
2019-05-05T12:03:34.008Z,46.00
2019-05-05T12:06:04.779Z,44.10
2019-05-05T12:08:34.638Z,44.90
2019-05-05T12:11:06.314Z,44.90
2019-05-05T12:13:35.571Z,45.20
2019-05-05T12:16:05.899Z,45.60
2019-05-05T12:18:35.243Z,45.20
2019-05-05T12:21:05.452Z,46.30
2019-05-05T12:23:34.794Z,47.10
2019-05-05T12:26:17.962Z,47.00
2019-05-05T12:28:58.869Z,46.80
2019-05-05T12:31:31.199Z,45.20
2019-05-05T12:34:00.803Z,44.40
2019-05-05T12:36:30.067Z,44.40
2019-05-05T12:39:00.406Z,41.80
2019-05-05T12:41:32.263Z,41.40
2019-05-05T12:44:03.421Z,40.00
2019-05-05T12:46:37.928Z,38.40
2019-05-05T12:49:10.976Z,35.90
2019-05-05T12:51:40.735Z,38.30
2019-05-05T12:54:11.527Z,37.90
2019-05-05T12:56:41.311Z,38.80
2019-05-05T12:59:14.162Z,40.60
2019-05-05T13:01:44.160Z,40.30
2019-05-05T13:04:14.220Z,41.60
2019-05-05T13:06:45.076Z,42.30
2019-05-05T13:09:16.179Z,41.30
2019-05-05T13:11:45.695Z,42.20
2019-05-05T13:14:14.954Z,42.50
2019-05-05T13:16:52.767Z,42.00
2019-05-05T13:19:17.218Z,41.70
2019-05-05T13:22:03.729Z,42.50
2019-05-05T13:24:40.499Z,42.00
2019-05-05T13:27:13.592Z,41.00
2019-05-05T13:29:44.207Z,41.40
2019-05-05T13:32:14.174Z,40.50
2019-05-05T13:34:44.106Z,40.80
2019-05-05T13:37:14.130Z,41.50
2019-05-05T13:39:44.592Z,41.10
2019-05-05T13:42:15.014Z,41.00
2019-05-05T13:44:51.902Z,39.20
2019-05-05T13:47:21.289Z,38.40
2019-05-05T13:49:54.278Z,36.30
2019-05-05T13:52:24.382Z,35.70
2019-05-05T13:54:54.398Z,36.40
2019-05-05T13:57:25.176Z,34.70
2019-05-05T13:59:54.695Z,34.00
2019-05-05T14:02:24.560Z,33.70
2019-05-05T14:04:54.278Z,36.40
2019-05-05T14:07:24.142Z,37.90
2019-05-05T14:09:55.050Z,38.30
2019-05-05T14:12:25.941Z,39.90
2019-05-05T14:14:55.317Z,40.70
2019-05-05T14:17:25.630Z,41.40
2019-05-05T14:20:04.718Z,41.90
2019-05-05T14:22:26.190Z,40.20
2019-05-05T14:24:57.166Z,40.40
2019-05-05T14:27:26.482Z,41.80
2019-05-05T14:29:57.680Z,41.70
2019-05-05T14:32:28.701Z,42.70
2019-05-05T14:34:59.630Z,42.40
2019-05-05T14:37:30.512Z,43.20
2019-05-05T14:39:59.775Z,43.30
2019-05-05T14:42:29.063Z,42.50
2019-05-05T14:44:58.349Z,43.50
2019-05-05T14:47:28.254Z,43.60
2019-05-05T14:49:57.829Z,43.50
2019-05-05T14:52:27.321Z,44.00
2019-05-05T14:54:56.586Z,43.40
2019-05-05T14:57:28.784Z,41.40
2019-05-05T14:59:58.110Z,41.20
2019-05-05T15:02:27.431Z,40.00
2019-05-05T15:04:58.643Z,39.90
2019-05-05T15:07:29.550Z,40.70
2019-05-05T15:10:01.823Z,40.60
2019-05-05T15:12:40.710Z,40.80
2019-05-05T15:15:10.318Z,41.20
2019-05-05T15:17:39.591Z,41.80
2019-05-05T15:20:09.026Z,42.30
2019-05-05T15:22:38.294Z,41.80
2019-05-05T15:25:07.728Z,39.90
2019-05-05T15:27:37.004Z,39.70
2019-05-05T15:30:07.540Z,39.40
2019-05-05T15:32:36.813Z,38.30
2019-05-05T15:35:07.947Z,38.10
2019-05-05T15:37:37.219Z,39.60
2019-05-05T15:40:06.831Z,39.10
2019-05-05T15:42:37.370Z,39.50
2019-05-05T15:45:07.678Z,40.20
2019-05-05T15:47:36.983Z,40.50
2019-05-05T15:50:07.654Z,41.10
2019-05-05T15:52:37.187Z,42.00
2019-05-05T15:55:08.637Z,40.90
2019-05-05T15:57:37.983Z,41.10
2019-05-05T16:00:09.758Z,40.70
2019-05-05T16:02:39.411Z,43.30
2019-05-05T16:05:09.810Z,42.30
2019-05-05T16:07:39.082Z,40.50
2019-05-05T16:10:09.889Z,40.60
2019-05-05T16:12:39.735Z,41.10
2019-05-05T16:15:28.130Z,41.40
2019-05-05T16:17:59.283Z,39.60
2019-05-05T16:20:44.229Z,39.60
2019-05-05T16:23:31.119Z,40.70
2019-05-05T16:26:00.380Z,41.40
2019-05-05T16:28:29.655Z,41.60
2019-05-05T16:30:58.915Z,42.10
2019-05-05T16:33:28.326Z,41.30
2019-05-05T16:35:57.775Z,42.80
2019-05-05T16:38:27.042Z,42.00
2019-05-05T16:40:56.331Z,43.20
2019-05-05T16:43:25.594Z,41.50
2019-05-05T16:45:55.187Z,40.90
2019-05-05T16:48:25.762Z,41.50
2019-05-05T16:50:55.210Z,42.60
2019-05-05T16:53:38.143Z,43.60
2019-05-05T16:56:10.598Z,44.40
2019-05-05T16:58:39.920Z,44.70
2019-05-05T17:01:10.830Z,44.70
2019-05-05T17:03:40.838Z,45.40
2019-05-05T17:06:10.103Z,45.40
2019-05-05T17:08:39.446Z,45.40
2019-05-05T17:11:08.995Z,44.70
2019-05-05T17:13:49.151Z,45.20
2019-05-05T17:16:29.246Z,46.00
2019-05-05T17:19:09.090Z,45.90
2019-05-05T17:21:40.006Z,46.70
2019-05-05T17:24:09.270Z,47.70
2019-05-05T17:26:38.542Z,47.40
2019-05-05T17:29:07.810Z,46.90
2019-05-05T17:31:37.070Z,47.50
2019-05-05T17:34:06.347Z,47.90
2019-05-05T17:36:35.607Z,47.60
2019-05-05T17:39:07.783Z,47.50
2019-05-05T17:41:45.123Z,48.30
2019-05-05T17:44:33.688Z,48.90
2019-05-05T17:47:04.699Z,49.40
2019-05-05T17:49:36.751Z,48.30
2019-05-05T17:52:07.656Z,49.10
2019-05-05T17:54:41.666Z,51.60
2019-05-05T17:57:10.931Z,52.80
2019-05-05T17:59:40.289Z,52.50
2019-05-05T18:02:09.887Z,54.40
2019-05-05T18:04:39.725Z,55.70
2019-05-05T18:07:10.624Z,56.60
2019-05-05T18:09:58.375Z,57.30
2019-05-05T18:12:29.279Z,56.80
2019-05-05T18:15:00.251Z,56.80
2019-05-05T18:17:29.570Z,57.00
2019-05-05T18:19:58.831Z,58.00
2019-05-05T18:22:28.099Z,57.70
2019-05-05T18:24:57.434Z,57.10
2019-05-05T18:27:26.698Z,57.00
2019-05-05T18:29:55.963Z,57.60
2019-05-05T18:32:25.234Z,57.90
2019-05-05T18:34:54.656Z,58.50
2019-05-05T18:37:24.351Z,59.40
2019-05-05T18:39:54.616Z,60.70
2019-05-05T18:42:24.806Z,60.40
2019-05-05T18:44:55.699Z,60.80
2019-05-05T18:47:25.256Z,61.80
2019-05-05T18:49:54.532Z,62.00
2019-05-05T18:52:24.566Z,62.30
2019-05-05T18:54:54.582Z,63.20
2019-05-05T18:57:24.644Z,63.50
2019-05-05T18:59:55.138Z,64.00
2019-05-05T19:02:31.810Z,64.20
2019-05-05T19:05:04.599Z,64.60
2019-05-05T19:07:37.184Z,64.70
2019-05-05T19:10:08.155Z,65.10
2019-05-05T19:12:37.953Z,65.20
2019-05-05T19:15:07.476Z,66.10
2019-05-05T19:17:37.423Z,65.70
2019-05-05T19:20:10.159Z,66.20
2019-05-05T19:22:39.416Z,66.20
2019-05-05T19:25:17.715Z,66.10
2019-05-05T19:27:48.452Z,66.40
2019-05-05T19:30:18.310Z,66.40
2019-05-05T19:32:47.574Z,65.50
2019-05-05T19:35:16.831Z,65.20
2019-05-05T19:37:46.117Z,63.50
2019-05-05T19:40:15.539Z,62.50
2019-05-05T19:42:46.291Z,63.20
2019-05-05T19:45:16.158Z,63.70
2019-05-05T19:47:45.422Z,64.20
2019-05-05T19:50:17.237Z,63.80
2019-05-05T19:52:46.780Z,64.10
2019-05-05T19:55:16.038Z,64.10
2019-05-05T19:57:45.304Z,64.40
2019-05-05T20:00:15.158Z,65.10
2019-05-05T20:02:44.489Z,65.70
2019-05-05T20:05:15.002Z,66.00
2019-05-05T20:07:44.258Z,67.20
2019-05-05T20:10:14.729Z,67.70
2019-05-05T20:12:46.859Z,68.00
2019-05-05T20:15:17.526Z,67.90
2019-05-05T20:17:46.899Z,67.90
2019-05-05T20:20:16.236Z,67.90
2019-05-05T20:22:45.496Z,68.80
2019-05-05T20:25:15.703Z,68.90
2019-05-05T20:27:44.975Z,69.70
2019-05-05T20:30:14.578Z,70.00
2019-05-05T20:35:27.627Z,70.50
2019-05-05T20:37:58.547Z,71.20
2019-05-05T20:40:29.442Z,71.70
2019-05-05T20:42:58.989Z,72.10
2019-05-05T20:45:29.883Z,72.10
2019-05-05T20:47:59.228Z,72.20
2019-05-05T20:50:28.487Z,72.50
2019-05-05T20:52:57.914Z,72.20
2019-05-05T20:55:27.181Z,72.40
2019-05-05T20:57:56.507Z,71.80
2019-05-05T21:00:25.772Z,71.90
2019-05-05T21:02:55.030Z,72.30
2019-05-05T21:05:24.290Z,72.70
2019-05-05T21:07:54.530Z,73.10
2019-05-05T21:10:24.263Z,74.00
2019-05-05T21:12:54.381Z,74.10
2019-05-05T21:15:24.622Z,73.90
2019-05-05T21:17:54.374Z,74.50
2019-05-05T21:20:24.209Z,75.20
2019-05-05T21:23:03.517Z,75.00
2019-05-05T21:25:37.299Z,75.10
2019-05-05T21:28:06.560Z,75.20
2019-05-05T21:30:35.826Z,75.60
2019-05-05T21:33:05.091Z,75.90
2019-05-05T21:35:34.988Z,76.00
2019-05-05T21:38:04.853Z,75.90
2019-05-05T21:40:35.374Z,75.80
2019-05-05T21:43:05.172Z,76.60
2019-05-05T21:45:34.875Z,76.80
2019-05-05T21:48:04.534Z,77.10
2019-05-05T21:50:50.325Z,77.60
2019-05-05T21:53:20.459Z,77.70
2019-05-05T21:55:51.279Z,77.70
2019-05-05T21:58:23.287Z,77.90
2019-05-05T22:00:54.951Z,78.10
2019-05-05T22:03:37.430Z,78.10
2019-05-05T22:06:06.887Z,77.60
2019-05-05T22:08:36.222Z,77.70
2019-05-05T22:11:06.027Z,77.60
2019-05-05T22:13:36.643Z,77.60
2019-05-05T22:16:07.190Z,77.40
2019-05-05T22:18:36.447Z,77.60
2019-05-05T22:21:16.103Z,77.10
2019-05-05T22:23:47.003Z,77.20
2019-05-05T22:26:16.267Z,77.00
2019-05-05T22:28:45.534Z,77.50
2019-05-05T22:31:14.802Z,77.30
2019-05-05T22:33:44.715Z,77.10
2019-05-05T22:36:14.180Z,77.70
2019-05-05T22:38:44.569Z,78.20
2019-05-05T22:41:15.913Z,79.10
2019-05-05T22:43:45.355Z,78.60
2019-05-05T22:46:14.851Z,77.90
2019-05-05T22:48:44.148Z,78.20
2019-05-05T22:51:14.409Z,77.20
2019-05-05T22:53:44.404Z,76.60
2019-05-05T22:56:14.758Z,76.80
2019-05-05T22:58:44.116Z,77.00
2019-05-05T23:01:13.724Z,76.20
2019-05-05T23:03:44.979Z,75.80
2019-05-05T23:06:19.015Z,75.40
2019-05-05T23:08:48.263Z,75.50
2019-05-05T23:11:17.798Z,75.40
2019-05-05T23:13:47.060Z,75.40
2019-05-05T23:16:20.438Z,75.40
2019-05-05T23:18:50.007Z,75.80
2019-05-05T23:21:36.178Z,75.70
2019-05-05T23:24:18.710Z,75.80
2019-05-05T23:26:49.640Z,75.80
2019-05-05T23:29:18.891Z,75.90
2019-05-05T23:31:48.160Z,75.90
2019-05-05T23:34:17.429Z,76.00
2019-05-05T23:36:46.699Z,76.20
2019-05-05T23:39:16.271Z,76.30
2019-05-05T23:41:45.541Z,76.20
2019-05-05T23:44:14.807Z,76.50
2019-05-05T23:46:45.139Z,76.50
2019-05-05T23:49:14.410Z,76.50
2019-05-05T23:51:44.114Z,76.20
2019-05-05T23:54:13.683Z,76.20
2019-05-05T23:56:44.121Z,76.20
2019-05-05T23:59:13.725Z,76.50
